Time;durP1;ratioP1;P1;durP2;ratioP2;P2;SDS_P1;SDS_P2;PMS_P1;PMS_P2;Temp;Humidity;BMP_temperature;BMP_pressure;BME280_temperature;BME280_humidity;BME280_pressure;Samples;Min_cycle;Max_cycle;Signal;HPM_P1;HPM_P2
2022/09/08 00:00:44;;;;;;;2.42;0.55;;;19.00;99.90;;;;;;5052445;28;20025;-87
2022/09/08 00:03:14;;;;;;;3.13;0.73;;;18.90;99.90;;;;;;5049485;28;20377;-88
2022/09/08 00:05:55;;;;;;;3.65;0.85;;;18.90;99.90;;;;;;5051800;28;20020;-88
2022/09/08 00:08:21;;;;;;;1.83;0.70;;;18.90;99.90;;;;;;5047165;28;20017;-89
2022/09/08 00:10:50;;;;;;;1.75;0.70;;;18.90;99.90;;;;;;5052760;28;20374;-89
2022/09/08 00:13:18;;;;;;;2.85;1.30;;;18.80;99.90;;;;;;5053692;28;20102;-88
2022/09/08 00:15:44;;;;;;;4.28;0.85;;;18.70;99.90;;;;;;5051917;28;20029;-89
2022/09/08 00:18:10;;;;;;;4.15;1.02;;;18.70;99.90;;;;;;5052409;28;20021;-89
2022/09/08 00:20:35;;;;;;;2.60;0.88;;;18.80;99.90;;;;;;5053305;28;20036;-89
2022/09/08 00:23:01;;;;;;;3.70;1.00;;;18.50;99.90;;;;;;5048506;28;22617;-89
2022/09/08 00:25:27;;;;;;;1.73;0.70;;;18.70;99.90;;;;;;5051278;28;20029;-89
2022/09/08 00:27:52;;;;;;;2.35;1.02;;;18.60;99.90;;;;;;5052466;28;20014;-89
2022/09/08 00:30:18;;;;;;;4.93;1.35;;;18.60;99.90;;;;;;5052192;28;20625;-89
2022/09/08 00:32:44;;;;;;;2.15;0.90;;;18.60;99.90;;;;;;5049977;28;20441;-90
2022/09/08 00:35:14;;;;;;;2.78;0.73;;;18.70;99.90;;;;;;5051252;28;20040;-90
2022/09/08 00:37:43;;;;;;;2.28;1.00;;;18.70;99.90;;;;;;5069092;28;20044;-89
2022/09/08 00:40:09;;;;;;;2.53;0.75;;;18.70;99.90;;;;;;5037177;28;20029;-88
2022/09/08 00:42:35;;;;;;;2.63;1.33;;;18.70;99.90;;;;;;5051549;28;20075;-89
2022/09/08 00:45:01;;;;;;;2.47;1.17;;;18.70;99.90;;;;;;5041096;28;20017;-90
2022/09/08 00:47:36;;;;;;;2.08;1.00;;;18.70;99.90;;;;;;5052237;28;20518;-90
2022/09/08 00:50:14;;;;;;;2.35;1.10;;;18.70;99.90;;;;;;5043958;28;20021;-90
2022/09/08 00:52:52;;;;;;;4.25;1.20;;;18.80;99.90;;;;;;5051112;28;20033;-90
2022/09/08 00:55:20;;;;;;;1.58;0.80;;;18.80;99.90;;;;;;5052096;28;20062;-90
2022/09/08 00:57:48;;;;;;;3.00;1.20;;;18.80;99.90;;;;;;5067558;28;20087;-90
2022/09/08 01:00:16;;;;;;;2.00;0.85;;;18.60;99.90;;;;;;5053751;28;20110;-91
2022/09/08 01:02:52;;;;;;;1.98;0.90;;;18.60;99.90;;;;;;5051595;28;20025;-90
2022/09/08 01:05:27;;;;;;;1.98;0.88;;;18.60;99.90;;;;;;5049193;28;20040;-90
2022/09/08 01:14:56;;;;;;;3.30;1.13;;;18.70;99.90;;;;;;5049196;28;20055;-91
2022/09/08 01:17:30;;;;;;;2.53;1.00;;;18.70;99.90;;;;;;5045955;28;20029;-90
2022/09/08 01:20:01;;;;;;;1.55;0.77;;;18.60;99.90;;;;;;5051652;28;20251;-90
2022/09/08 01:22:48;;;;;;;3.30;0.90;;;18.70;99.90;;;;;;5049609;28;20075;-90
2022/09/08 01:25:16;;;;;;;3.60;0.95;;;18.70;99.90;;;;;;5059444;28;20347;-90
2022/09/08 01:27:47;;;;;;;2.10;0.80;;;18.60;99.90;;;;;;5051615;28;20071;-90
2022/09/08 01:30:15;;;;;;;2.03;0.90;;;18.60;99.90;;;;;;5053626;28;20024;-90
2022/09/08 01:32:43;;;;;;;4.00;1.10;;;18.60;99.90;;;;;;5065801;28;20049;-91
2022/09/08 01:35:11;;;;;;;3.15;1.00;;;18.60;99.90;;;;;;5049209;28;20039;-90
2022/09/08 01:37:37;;;;;;;3.78;1.23;;;18.60;99.90;;;;;;5050044;28;20041;-90
2022/09/08 01:40:29;;;;;;;2.40;1.10;;;18.60;99.90;;;;;;5050065;28;20074;-91
2022/09/08 01:42:57;;;;;;;2.38;0.82;;;18.70;99.90;;;;;;5044622;28;20025;-90
2022/09/08 01:45:36;;;;;;;2.83;1.45;;;18.70;99.90;;;;;;5041575;28;20025;-90
2022/09/08 01:48:03;;;;;;;3.00;0.95;;;18.60;99.90;;;;;;5046502;28;20021;-90
2022/09/08 01:50:33;;;;;;;1.83;0.90;;;18.60;99.90;;;;;;5050555;28;20021;-90
2022/09/08 01:52:59;;;;;;;2.40;1.05;;;18.50;99.90;;;;;;5058160;28;20061;-90
2022/09/08 01:55:24;;;;;;;2.90;0.77;;;18.50;99.90;;;;;;5045197;28;20037;-90
2022/09/08 01:57:50;;;;;;;2.58;1.00;;;18.40;99.90;;;;;;5051390;28;20017;-90
2022/09/08 02:00:16;;;;;;;2.97;0.60;;;18.30;99.90;;;;;;5042757;28;20021;-90
2022/09/08 02:02:42;;;;;;;3.22;0.80;;;18.30;99.90;;;;;;5051839;28;20111;-89
2022/09/08 02:05:08;;;;;;;1.63;0.80;;;18.20;99.90;;;;;;5048026;28;20118;-89
2022/09/08 02:07:36;;;;;;;2.17;0.57;;;18.10;99.90;;;;;;5051417;28;20032;-89
2022/09/08 02:10:05;;;;;;;2.97;0.77;;;18.10;99.90;;;;;;5052520;28;20013;-89
2022/09/08 02:12:31;;;;;;;2.45;0.88;;;18.10;99.90;;;;;;5051586;28;20456;-89
2022/09/08 02:14:57;;;;;;;1.73;0.93;;;18.00;99.90;;;;;;5051320;28;20063;-89
2022/09/08 02:17:23;;;;;;;1.73;0.65;;;18.00;99.90;;;;;;5052623;28;20079;-89
2022/09/08 02:19:48;;;;;;;9.63;1.17;;;18.00;99.90;;;;;;5068778;28;20075;-89
2022/09/08 02:22:14;;;;;;;1.40;0.50;;;17.90;99.90;;;;;;5048368;28;20025;-89
2022/09/08 02:24:41;;;;;;;2.88;0.70;;;17.90;99.90;;;;;;5051927;28;20035;-90
2022/09/08 02:27:07;;;;;;;3.08;0.63;;;17.80;99.90;;;;;;5049031;28;20021;-89
2022/09/08 02:29:33;;;;;;;2.10;0.65;;;17.90;99.90;;;;;;5051277;28;20426;-89
2022/09/08 02:32:00;;;;;;;1.20;0.57;;;18.00;99.90;;;;;;5050018;28;20116;-89
2022/09/08 02:34:26;;;;;;;1.20;0.50;;;17.70;99.90;;;;;;5049309;28;20485;-89
2022/09/08 02:36:51;;;;;;;1.73;0.70;;;17.70;99.90;;;;;;5065938;28;20063;-89
2022/09/08 02:39:20;;;;;;;0.90;0.50;;;17.70;99.90;;;;;;5051169;28;20504;-89
2022/09/08 02:41:45;;;;;;;2.10;0.77;;;17.60;99.90;;;;;;5061672;28;20029;-89
2022/09/08 02:44:14;;;;;;;0.88;0.38;;;17.50;99.90;;;;;;5049138;28;20040;-90
2022/09/08 02:46:40;;;;;;;1.00;0.38;;;17.50;99.90;;;;;;5046470;28;20074;-90
2022/09/08 02:49:08;;;;;;;2.63;0.50;;;17.50;99.90;;;;;;5045647;28;20025;-88
2022/09/08 02:51:33;;;;;;;1.20;0.40;;;18.00;99.90;;;;;;5051648;28;20084;-89
2022/09/08 02:53:59;;;;;;;2.35;0.77;;;17.60;99.90;;;;;;5043497;28;20091;-89
2022/09/08 02:56:25;;;;;;;4.10;0.47;;;17.30;99.90;;;;;;5048524;28;20032;-89
2022/09/08 02:58:51;;;;;;;0.68;0.30;;;17.40;99.90;;;;;;5048931;28;20531;-89
2022/09/08 03:01:17;;;;;;;0.73;0.30;;;17.50;99.90;;;;;;5051336;28;20056;-89
2022/09/08 03:03:43;;;;;;;0.95;0.28;;;17.30;99.90;;;;;;5049559;28;20025;-90
2022/09/08 03:06:09;;;;;;;1.10;0.40;;;17.30;99.90;;;;;;5048638;28;20045;-89
2022/09/08 03:08:35;;;;;;;3.00;0.45;;;17.30;99.90;;;;;;5049371;28;20013;-90
2022/09/08 03:11:02;;;;;;;0.88;0.30;;;17.20;99.90;;;;;;5045118;28;20040;-89
2022/09/08 03:13:28;;;;;;;0.70;0.28;;;17.60;99.90;;;;;;5048264;28;20026;-90
2022/09/08 03:15:54;;;;;;;0.60;0.30;;;17.20;99.90;;;;;;5052917;28;20028;-89
2022/09/08 03:18:20;;;;;;;0.40;0.20;;;17.10;99.90;;;;;;5054658;28;20025;-89
2022/09/08 03:20:46;;;;;;;1.02;0.35;;;17.20;99.90;;;;;;5053538;28;20028;-89
2022/09/08 03:23:19;;;;;;;1.95;0.30;;;17.10;99.90;;;;;;5051633;28;20485;-89
2022/09/08 03:25:47;;;;;;;1.05;0.30;;;17.20;99.90;;;;;;5053299;28;20025;-89
2022/09/08 03:28:19;;;;;;;3.03;0.80;;;17.10;99.90;;;;;;5055605;28;20473;-89
2022/09/08 03:30:45;;;;;;;0.68;0.20;;;17.10;99.90;;;;;;5052407;28;20032;-89
2022/09/08 03:33:11;;;;;;;1.00;0.43;;;17.10;99.90;;;;;;5055230;28;20071;-89
2022/09/08 03:35:37;;;;;;;0.43;0.22;;;17.10;99.90;;;;;;5052786;28;20039;-89
2022/09/08 03:38:03;;;;;;;0.75;0.30;;;17.00;99.90;;;;;;5053114;28;20086;-89
2022/09/08 03:40:50;;;;;;;0.93;0.30;;;17.10;99.90;;;;;;5081398;23;20094;-87
2022/09/08 03:50:42;;;;;;;1.05;0.30;;;17.00;99.90;;;;;;5070316;28;20046;-89
2022/09/08 03:53:23;;;;;;;2.80;0.20;;;16.90;99.90;;;;;;5041450;28;20063;-89
2022/09/08 03:56:19;;;;;;;0.43;0.20;;;16.90;99.90;;;;;;5054291;28;20041;-89
2022/09/08 03:59:08;;;;;;;0.68;0.20;;;16.80;99.90;;;;;;5066108;28;20063;-89
2022/09/08 04:01:54;;;;;;;0.55;0.20;;;16.80;99.90;;;;;;5048391;28;20408;-89
2022/09/08 04:04:25;;;;;;;0.52;0.30;;;16.70;99.90;;;;;;5057821;28;20029;-89
2022/09/08 04:06:59;;;;;;;0.10;0.08;;;16.70;99.90;;;;;;5058047;28;20021;-88
2022/09/08 04:09:30;;;;;;;1.25;0.20;;;16.70;99.90;;;;;;5062678;28;20024;-88
2022/09/08 04:11:56;;;;;;;0.40;0.17;;;16.70;99.90;;;;;;5058661;28;20032;-88
2022/09/08 04:14:37;;;;;;;0.20;0.10;;;16.70;99.90;;;;;;5067737;28;20028;-89
2022/09/08 04:17:03;;;;;;;0.30;0.10;;;16.70;99.90;;;;;;5061865;28;20033;-89
2022/09/08 04:19:29;;;;;;;0.60;0.20;;;16.60;99.90;;;;;;5054998;28;20500;-88
2022/09/08 04:22:22;;;;;;;0.95;0.30;;;16.60;99.90;;;;;;5065845;28;20024;-89
2022/09/08 04:24:53;;;;;;;1.00;0.20;;;16.60;99.90;;;;;;5023814;28;20040;-89
2022/09/08 04:27:21;;;;;;;0.65;0.20;;;16.60;99.90;;;;;;5062035;28;20100;-88
2022/09/08 04:29:47;;;;;;;0.32;0.17;;;16.50;99.90;;;;;;5063277;28;20137;-90
2022/09/08 04:32:13;;;;;;;0.88;0.10;;;16.60;99.90;;;;;;5060070;28;20104;-89
2022/09/08 04:34:46;;;;;;;1.85;0.20;;;16.60;99.90;;;;;;5055296;28;20036;-87
2022/09/08 04:37:17;;;;;;;0.75;0.30;;;16.50;99.90;;;;;;5053949;28;20025;-88
2022/09/08 04:39:42;;;;;;;0.30;0.10;;;16.80;99.90;;;;;;5077593;28;20432;-89
2022/09/08 04:42:13;;;;;;;0.40;0.10;;;16.70;99.90;;;;;;5063222;28;20028;-89
2022/09/08 04:44:55;;;;;;;0.20;0.10;;;16.60;99.90;;;;;;5063101;28;20052;-88
2022/09/08 04:47:49;;;;;;;0.50;0.20;;;16.50;99.90;;;;;;5058436;28;20477;-88
2022/09/08 04:50:27;;;;;;;0.45;0.13;;;16.50;99.90;;;;;;5058546;28;20017;-89
2022/09/08 04:52:56;;;;;;;0.60;0.10;;;16.50;99.90;;;;;;5057790;28;20552;-88
2022/09/08 04:55:36;;;;;;;0.30;0.10;;;16.50;99.90;;;;;;5058392;28;20021;-88
2022/09/08 04:58:15;;;;;;;0.20;0.10;;;16.40;99.90;;;;;;5055163;28;20020;-88
2022/09/08 05:00:41;;;;;;;0.20;0.10;;;16.50;99.90;;;;;;5065982;28;20017;-87
2022/09/08 05:03:18;;;;;;;0.30;0.20;;;16.50;99.90;;;;;;5058466;28;20554;-89
2022/09/08 05:05:57;;;;;;;0.17;0.10;;;16.50;99.90;;;;;;5054324;28;20095;-90
2022/09/08 05:08:52;;;;;;;0.63;0.20;;;16.40;99.90;;;;;;5057482;28;20020;-90
2022/09/08 05:11:27;;;;;;;0.10;0.00;;;16.50;99.90;;;;;;5024863;28;20481;-89
2022/09/08 05:13:55;;;;;;;0.35;0.10;;;16.40;99.90;;;;;;5051033;28;20029;-89
2022/09/08 05:16:26;;;;;;;0.88;0.30;;;16.30;99.90;;;;;;5050058;28;20017;-90
2022/09/08 05:19:18;;;;;;;0.30;0.10;;;16.30;99.90;;;;;;5063877;28;20016;-90
2022/09/08 05:21:46;;;;;;;0.52;0.20;;;16.40;99.90;;;;;;5051557;28;20029;-90
2022/09/08 05:24:19;;;;;;;0.43;0.20;;;16.40;99.90;;;;;;5053116;28;20020;-90
2022/09/08 05:26:58;;;;;;;0.80;0.38;;;16.50;99.90;;;;;;5062636;28;20021;-90
2022/09/08 05:29:35;;;;;;;1.38;0.20;;;16.30;99.90;;;;;;5054060;28;20024;-89
2022/09/08 05:32:13;;;;;;;0.30;0.10;;;16.40;99.90;;;;;;5056619;28;20020;-90
2022/09/08 05:37:39;;;;;;;0.68;0.30;;;16.30;99.90;;;;;;5049589;28;20037;-89
2022/09/08 05:43:25;;;;;;;0.10;0.10;;;16.30;99.90;;;;;;5049818;28;20077;-89
2022/09/08 05:46:16;;;;;;;1.55;0.30;;;16.20;99.90;;;;;;5059840;28;20028;-90
2022/09/08 05:49:02;;;;;;;0.73;0.17;;;16.20;99.90;;;;;;5056141;28;20036;-90
2022/09/08 05:56:18;;;;;;;0.50;0.20;;;16.20;99.90;;;;;;4958199;28;20492;-89
2022/09/08 05:59:31;;;;;;;0.13;0.10;;;16.30;99.90;;;;;;4966082;28;20412;-90
2022/09/08 06:02:15;;;;;;;;;;;;;;;;;;;;;
2022/09/08 06:05:24;;;;;;;;;;;;;;;;;;;;;
2022/09/08 06:08:35;;;;;;;1.27;0.28;;;16.20;99.90;;;;;;5051612;28;20029;-90
2022/09/08 06:11:07;;;;;;;0.68;0.25;;;16.20;99.90;;;;;;5047210;28;20035;-89
2022/09/08 06:13:39;;;;;;;0.40;0.30;;;16.30;99.90;;;;;;5051652;28;20025;-90
2022/09/08 06:16:08;;;;;;;;;;;16.20;99.90;;;;;;5056119;28;20021;-89
2022/09/08 06:18:38;;;;;;;0.52;0.30;;;16.20;99.90;;;;;;5056960;28;19931;-90
2022/09/08 06:21:36;;;;;;;;;;;;;;;;;;;;;
2022/09/08 06:24:13;;;;;;;0.70;0.30;;;16.30;99.90;;;;;;5059044;28;20023;-90
2022/09/08 06:27:16;;;;;;;0.43;0.20;;;16.30;99.90;;;;;;5060769;28;20040;-90
2022/09/08 06:30:03;;;;;;;0.47;0.10;;;16.20;99.90;;;;;;5058575;28;20032;-90
2022/09/08 06:32:50;;;;;;;0.43;0.10;;;16.20;99.90;;;;;;5054038;28;20029;-90
2022/09/08 06:35:39;;;;;;;0.20;0.10;;;16.20;99.90;;;;;;5058232;28;20499;-89
2022/09/08 06:38:20;;;;;;;2.50;0.20;;;16.20;99.90;;;;;;5041509;28;20060;-90
2022/09/08 06:41:00;;;;;;;0.30;0.10;;;16.20;99.90;;;;;;5062192;28;20158;-91
2022/09/08 06:43:51;;;;;;;0.47;0.20;;;16.20;99.90;;;;;;5051984;28;20731;-90
2022/09/08 06:46:35;;;;;;;0.55;0.00;;;16.10;99.90;;;;;;5048763;28;20485;-90
2022/09/08 06:49:40;;;;;;;0.43;0.03;;;16.10;99.90;;;;;;5054116;28;20551;-89
2022/09/08 06:52:15;;;;;;;0.32;0.17;;;16.10;99.90;;;;;;5056810;28;20032;-89
2022/09/08 06:58:10;;;;;;;0.05;0.03;;;16.20;99.90;;;;;;5053631;28;20115;-90
2022/09/08 07:01:02;;;;;;;0.25;0.13;;;16.20;99.90;;;;;;5060791;28;20035;-86
2022/09/08 07:03:45;;;;;;;0.30;0.10;;;16.20;99.90;;;;;;5053734;28;20028;-89
2022/09/08 07:06:17;;;;;;;0.20;0.00;;;16.30;99.90;;;;;;5053984;28;20047;-88
2022/09/08 07:09:19;;;;;;;0.65;0.20;;;16.30;99.90;;;;;;5058721;28;20031;-87
2022/09/08 07:12:10;;;;;;;0.57;0.10;;;16.40;99.90;;;;;;5063528;28;20036;-89
2022/09/08 07:15:00;;;;;;;0.52;0.10;;;16.40;99.90;;;;;;5054253;28;20547;-88
2022/09/08 07:17:53;;;;;;;0.90;0.20;;;16.40;99.90;;;;;;5049787;28;20064;-88
2022/09/08 07:20:19;;;;;;;0.50;0.10;;;16.40;99.90;;;;;;5046143;28;20040;-89
2022/09/08 07:23:00;;;;;;;0.35;0.15;;;16.40;99.90;;;;;;5053127;28;20028;-88
2022/09/08 07:26:07;;;;;;;0.32;0.10;;;16.40;99.90;;;;;;5048300;28;20511;-87
2022/09/08 07:28:41;;;;;;;0.22;0.10;;;16.50;99.90;;;;;;4968348;28;20081;-89
2022/09/08 07:31:20;;;;;;;0.50;0.10;;;16.60;99.90;;;;;;5048968;28;20060;-88
2022/09/08 07:33:54;;;;;;;0.20;0.10;;;16.70;99.90;;;;;;5054396;28;20032;-88
2022/09/08 07:37:03;;;;;;;0.30;0.10;;;16.70;99.90;;;;;;5052625;28;20075;-89
2022/09/08 07:40:02;;;;;;;0.22;0.10;;;16.80;99.90;;;;;;5051280;28;20680;-89
2022/09/08 07:42:28;;;;;;;2.30;0.20;;;16.80;99.90;;;;;;5053540;28;20021;-89
2022/09/08 07:44:59;;;;;;;0.52;0.13;;;16.70;99.90;;;;;;5060046;28;20107;-89
2022/09/08 07:47:54;;;;;;;0.52;0.20;;;16.80;99.90;;;;;;5057149;28;20042;-88
2022/09/08 07:50:55;;;;;;;0.40;0.10;;;16.80;99.90;;;;;;5053727;28;20033;-89
2022/09/08 07:53:47;;;;;;;0.13;0.00;;;17.10;99.90;;;;;;5049016;28;20048;-89
2022/09/08 07:56:17;;;;;;;0.10;0.08;;;17.30;99.90;;;;;;5053805;28;20503;-88
2022/09/08 07:59:09;;;;;;;0.30;0.10;;;17.50;99.90;;;;;;5050546;28;20177;-89
2022/09/08 08:01:44;;;;;;;0.30;0.10;;;17.60;99.90;;;;;;5054920;28;20488;-88
2022/09/08 08:04:22;;;;;;;0.52;0.20;;;17.70;99.90;;;;;;5049605;28;20029;-90
2022/09/08 08:06:51;;;;;;;0.17;0.15;;;17.80;99.90;;;;;;5051599;28;20116;-89
2022/09/08 08:09:19;;;;;;;0.15;0.10;;;17.80;99.90;;;;;;5055704;28;20481;-90
2022/09/08 08:11:59;;;;;;;0.17;0.10;;;18.10;99.90;;;;;;5056243;28;20025;-90
2022/09/08 08:15:01;;;;;;;0.08;0.00;;;18.30;99.90;;;;;;5059938;28;20032;-90
2022/09/08 08:17:31;;;;;;;;;;;18.40;99.90;;;;;;5030324;28;20052;-88
2022/09/08 08:20:12;;;;;;;0.40;0.10;;;18.50;99.90;;;;;;5053379;28;19911;-88
2022/09/08 08:23:20;;;;;;;0.50;0.10;;;18.70;99.90;;;;;;5052291;28;20029;-88
2022/09/08 08:26:17;;;;;;;1.08;0.30;;;18.80;99.90;;;;;;4967273;28;20090;-89
2022/09/08 09:59:14;;;;;;;0.10;0.10;;;20.70;99.90;;;;;;4884749;29;20124;-84
2022/09/08 10:16:51;;;;;;;0.15;0.10;;;21.00;99.90;;;;;;4855940;29;20035;-83
2022/09/08 10:34:08;;;;;;;0.55;0.10;;;20.70;99.90;;;;;;3811469;26;20041;-82
2022/09/08 10:40:31;;;;;;;0.75;0.10;;;20.60;99.90;;;;;;4992066;28;20088;-84
2022/09/08 10:43:38;;;;;;;0.10;0.10;;;20.70;99.90;;;;;;5028696;28;20025;-83
2022/09/08 10:46:31;;;;;;;0.45;0.10;;;20.50;99.90;;;;;;5030538;28;20028;-83
2022/09/08 10:49:40;;;;;;;0.45;0.10;;;20.50;99.90;;;;;;5033900;28;20060;-83
2022/09/08 10:52:58;;;;;;;;;;;;;;;;;;;;;
2022/09/08 10:55:46;;;;;;;0.57;0.00;;;20.60;99.90;;;;;;5028190;28;20040;-83
2022/09/08 10:58:40;;;;;;;0.43;0.20;;;20.70;99.90;;;;;;5031896;28;20386;-83
2022/09/08 11:01:18;;;;;;;1.55;0.20;;;20.80;99.90;;;;;;5032466;28;20082;-83
2022/09/08 11:04:11;;;;;;;1.15;0.40;;;20.70;99.90;;;;;;5029899;28;20025;-83
2022/09/08 11:07:00;;;;;;;1.20;0.20;;;20.70;99.90;;;;;;5032458;28;20022;-82
2022/09/08 11:09:44;;;;;;;0.25;0.10;;;20.50;99.90;;;;;;5031177;28;20014;-83
2022/09/08 11:12:31;;;;;;;0.10;0.10;;;20.40;99.90;;;;;;5024680;28;20021;-83
2022/09/08 11:15:29;;;;;;;0.63;0.00;;;20.20;99.90;;;;;;5034261;28;20117;-83
2022/09/08 11:21:27;;;;;;;0.43;0.17;;;20.30;99.90;;;;;;5023305;28;20033;-83
2022/09/08 11:24:17;;;;;;;1.75;0.25;;;20.40;99.90;;;;;;5029506;28;20022;-84
2022/09/08 11:26:57;;;;;;;1.23;0.10;;;20.60;99.90;;;;;;5027449;28;20025;-84
2022/09/08 11:29:32;;;;;;;0.17;0.10;;;20.70;99.90;;;;;;5030050;28;20081;-84
2022/09/08 11:32:07;;;;;;;0.32;0.10;;;20.80;99.90;;;;;;5025384;28;20056;-84
2022/09/08 11:34:42;;;;;;;1.17;0.10;;;21.10;99.90;;;;;;5033511;28;20033;-85
2022/09/08 11:37:39;;;;;;;0.17;0.10;;;21.30;99.90;;;;;;5031904;28;20021;-84
2022/09/08 11:40:23;;;;;;;0.15;0.10;;;21.60;99.90;;;;;;5046347;28;20102;-84
2022/09/08 11:43:04;;;;;;;1.00;0.10;;;22.20;99.90;;;;;;5025814;28;20034;-84
2022/09/08 11:46:03;;;;;;;1.17;0.38;;;22.30;99.90;;;;;;5030986;28;20022;-84
2022/09/08 11:48:50;;;;;;;0.30;0.13;;;22.30;99.90;;;;;;5030832;28;20041;-84
2022/09/08 11:51:46;;;;;;;0.32;0.10;;;22.20;99.90;;;;;;5029438;28;20100;-85
2022/09/08 11:54:20;;;;;;;0.05;0.00;;;22.10;99.90;;;;;;5032828;28;20028;-84
2022/09/08 11:56:58;;;;;;;0.50;0.10;;;22.00;99.90;;;;;;5031167;28;20083;-85
2022/09/08 11:59:59;;;;;;;0.20;0.10;;;21.90;99.90;;;;;;5032445;28;20101;-84
2022/09/08 12:02:51;;;;;;;0.63;0.20;;;21.90;99.90;;;;;;5026812;23;20108;-86
2022/09/08 12:05:28;;;;;;;0.05;0.00;;;21.90;99.90;;;;;;5004631;28;20022;-86
2022/09/08 12:08:11;;;;;;;0.52;0.10;;;21.90;99.90;;;;;;4981572;28;20018;-86
2022/09/08 12:10:55;;;;;;;0.73;0.20;;;21.80;99.90;;;;;;4988409;28;20029;-88
2022/09/08 12:13:45;;;;;;;0.40;0.13;;;21.60;99.90;;;;;;4975007;28;20026;-88
2022/09/08 12:16:19;;;;;;;0.88;0.20;;;21.30;99.90;;;;;;4987066;28;20076;-86
2022/09/08 12:19:19;;;;;;;0.30;0.13;;;21.10;99.90;;;;;;4985498;28;20034;-87
2022/09/08 12:22:02;;;;;;;0.63;0.25;;;21.10;99.90;;;;;;4971337;28;20043;-87
2022/09/08 12:24:49;;;;;;;0.77;0.20;;;21.10;99.90;;;;;;4985385;28;20422;-86
2022/09/08 12:27:39;;;;;;;0.35;0.00;;;21.10;99.90;;;;;;4988982;28;20094;-87
2022/09/08 12:30:29;;;;;;;0.28;0.10;;;21.10;99.90;;;;;;4971015;28;20015;-89
2022/09/08 12:33:26;;;;;;;0.70;0.17;;;21.20;99.90;;;;;;4992316;28;20030;-89
2022/09/08 12:35:58;;;;;;;0.25;0.10;;;21.30;99.90;;;;;;4971069;28;20038;-89
2022/09/08 12:38:51;;;;;;;0.20;0.10;;;21.40;99.90;;;;;;4969328;28;20512;-90
2022/09/08 12:41:35;;;;;;;0.50;0.20;;;21.20;99.90;;;;;;4973899;28;20019;-89
2022/09/08 12:44:29;;;;;;;0.30;0.10;;;21.40;99.90;;;;;;4969854;28;20035;-90
2022/09/08 12:47:24;;;;;;;1.80;0.20;;;22.30;99.90;;;;;;4975217;28;20025;-89
2022/09/08 12:50:22;;;;;;;0.80;0.10;;;23.20;99.90;;;;;;4975412;28;20119;-89
2022/09/08 12:53:08;;;;;;;0.00;0.00;;;23.80;99.90;;;;;;4990463;28;20030;-90
2022/09/08 12:55:39;;;;;;;0.43;0.10;;;24.30;99.90;;;;;;4975477;28;20042;-87
2022/09/08 12:58:06;;;;;;;0.25;0.08;;;24.50;99.90;;;;;;4992640;28;20026;-87
2022/09/08 13:00:51;;;;;;;0.10;0.10;;;24.60;99.90;;;;;;4974795;28;20465;-87
2022/09/08 13:03:34;;;;;;;1.13;0.20;;;24.90;99.90;;;;;;4989651;28;20058;-88
2022/09/08 13:06:35;;;;;;;0.40;0.10;;;24.50;99.40;;;;;;4974353;28;20033;-88
2022/09/08 13:09:08;;;;;;;1.67;0.22;;;24.70;98.90;;;;;;4913648;29;20035;-88
2022/09/08 13:12:01;;;;;;;1.25;0.10;;;25.10;98.00;;;;;;4979026;28;20022;-89
2022/09/08 13:14:42;;;;;;;1.05;0.15;;;24.80;97.80;;;;;;4990978;28;20019;-88
2022/09/08 13:17:46;;;;;;;0.82;0.10;;;24.30;98.00;;;;;;4972685;28;20030;-88
2022/09/08 13:20:38;;;;;;;0.17;0.10;;;24.20;99.00;;;;;;4965713;28;20117;-88
2022/09/08 13:23:28;;;;;;;0.30;0.10;;;24.90;98.50;;;;;;4972337;28;20026;-88
2022/09/08 13:26:22;;;;;;;0.45;0.10;;;25.20;97.20;;;;;;4964083;28;20022;-88
2022/09/08 13:28:57;;;;;;;0.10;0.05;;;25.50;96.10;;;;;;4978954;28;20043;-88
2022/09/08 13:31:48;;;;;;;0.10;0.00;;;25.90;96.40;;;;;;4986641;28;20026;-88
2022/09/08 13:34:26;;;;;;;0.23;0.07;;;25.70;95.80;;;;;;4982732;28;20439;-87
2022/09/08 13:37:06;;;;;;;0.00;0.00;;;25.10;96.20;;;;;;4982337;28;20304;-87
2022/09/08 13:39:47;;;;;;;0.30;0.10;;;25.00;96.40;;;;;;4989287;28;20057;-87
2022/09/08 13:42:40;;;;;;;0.93;0.15;;;24.90;95.40;;;;;;4971552;28;20050;-87
2022/09/08 13:45:09;;;;;;;1.23;0.30;;;25.20;95.70;;;;;;4990246;28;20116;-87
2022/09/08 13:47:58;;;;;;;0.00;0.00;;;25.70;95.10;;;;;;4973483;28;20387;-87
2022/09/08 13:50:46;;;;;;;0.28;0.10;;;26.00;95.40;;;;;;4981471;28;20080;-88
2022/09/08 13:53:23;;;;;;;0.75;0.10;;;26.20;94.60;;;;;;4981013;28;20113;-88
2022/09/08 14:00:25;;;;;;;0.30;0.05;;;26.40;94.70;;;;;;4977975;23;20033;-86
2022/09/08 14:03:00;;;;;;;0.05;0.00;;;26.70;94.30;;;;;;4894200;29;20080;-87
2022/09/08 14:05:29;;;;;;;1.50;0.17;;;26.70;93.40;;;;;;4913366;29;20052;-87
2022/09/08 14:08:13;;;;;;;1.35;0.10;;;26.50;93.10;;;;;;4976585;28;20180;-86
2022/09/08 14:11:05;;;;;;;0.70;0.20;;;26.40;93.90;;;;;;5017971;28;20049;-86
2022/09/08 14:13:34;;;;;;;1.17;0.40;;;26.60;93.40;;;;;;5001261;28;20030;-86
2022/09/08 14:16:43;;;;;;;0.52;0.10;;;26.40;92.40;;;;;;4994276;28;20025;-85
2022/09/08 14:19:40;;;;;;;0.15;0.10;;;26.40;93.40;;;;;;4962860;28;20100;-87
2022/09/08 14:22:16;;;;;;;0.65;0.10;;;25.90;93.40;;;;;;5019658;23;20042;-88
2022/09/08 14:25:03;;;;;;;0.40;0.20;;;25.30;93.70;;;;;;5008938;28;20076;-88
2022/09/08 14:28:00;;;;;;;0.57;0.10;;;25.50;94.10;;;;;;5007187;28;20034;-88
2022/09/08 14:30:57;;;;;;;0.63;0.10;;;25.80;93.40;;;;;;5009689;28;20552;-88
2022/09/08 14:33:33;;;;;;;0.22;0.10;;;25.50;92.60;;;;;;5007474;28;20030;-88
2022/09/08 14:36:11;;;;;;;0.28;0.10;;;25.70;93.00;;;;;;5008175;28;20025;-88
2022/09/08 14:38:52;;;;;;;0.40;0.10;;;25.40;93.50;;;;;;5001732;28;20048;-87
2022/09/08 14:41:21;;;;;;;0.85;0.10;;;25.10;93.20;;;;;;5006165;28;20033;-88
2022/09/08 14:43:46;;;;;;;0.32;0.10;;;24.50;93.50;;;;;;5001628;28;20042;-88
2022/09/08 14:46:27;;;;;;;0.28;0.03;;;24.30;94.40;;;;;;5014761;28;20072;-88
2022/09/08 14:49:11;;;;;;;0.60;0.20;;;24.00;94.90;;;;;;5005737;28;20030;-85
2022/09/08 14:51:43;;;;;;;0.82;0.30;;;23.80;95.20;;;;;;5013372;28;20115;-86
2022/09/08 14:55:07;;;;;;;0.28;0.00;;;23.60;95.60;;;;;;5004994;28;20655;-86
2022/09/08 14:57:46;;;;;;;0.47;0.10;;;23.40;95.50;;;;;;4991174;28;20519;-86
2022/09/08 15:00:21;;;;;;;2.67;0.10;;;23.30;95.60;;;;;;4996636;28;20033;-86
2022/09/08 15:02:50;;;;;;;0.50;0.15;;;23.50;95.70;;;;;;5008258;28;20045;-86
2022/09/08 15:05:24;;;;;;;0.38;0.20;;;23.60;96.10;;;;;;5005201;28;20407;-86
2022/09/08 15:07:57;;;;;;;0.75;0.10;;;24.10;96.00;;;;;;4992611;28;20022;-85
2022/09/08 15:10:50;;;;;;;1.20;0.15;;;24.90;95.20;;;;;;5010755;28;20018;-85
2022/09/08 15:13:17;;;;;;;0.13;0.10;;;25.70;94.60;;;;;;5005868;28;20030;-85
2022/09/08 15:15:44;;;;;;;0.73;0.10;;;26.20;93.10;;;;;;5009263;28;20027;-85
2022/09/08 15:18:35;;;;;;;0.30;0.08;;;26.30;92.70;;;;;;5005810;28;20087;-85
2022/09/08 15:21:16;;;;;;;0.88;0.20;;;26.50;92.50;;;;;;5012585;28;20058;-85
2022/09/08 15:23:47;;;;;;;0.75;0.20;;;26.50;92.20;;;;;;5006335;28;20736;-85
2022/09/08 15:26:25;;;;;;;0.77;0.10;;;26.70;91.90;;;;;;5010607;28;20026;-86
2022/09/08 15:29:25;;;;;;;1.15;0.20;;;26.50;91.70;;;;;;5001329;28;20051;-85
2022/09/08 15:32:00;;;;;;;0.32;0.08;;;26.60;91.80;;;;;;5009822;28;20054;-86
2022/09/08 15:34:34;;;;;;;0.50;0.10;;;26.50;90.80;;;;;;5011638;28;20022;-85
2022/09/08 15:37:35;;;;;;;1.33;0.28;;;26.60;90.90;;;;;;5003071;28;20486;-86
2022/09/08 15:40:23;;;;;;;0.35;0.00;;;26.70;90.80;;;;;;5014146;28;20018;-86
2022/09/08 15:43:27;;;;;;;0.57;0.13;;;27.10;91.10;;;;;;5009813;28;20037;-86
2022/09/08 15:46:14;;;;;;;2.67;0.20;;;27.30;90.50;;;;;;5007688;28;20026;-85
2022/09/08 15:48:58;;;;;;;0.52;0.10;;;27.20;90.40;;;;;;5011120;28;20025;-86
2022/09/08 15:51:41;;;;;;;0.57;0.10;;;27.10;88.80;;;;;;5014010;28;20475;-86
2022/09/08 15:54:35;;;;;;;0.10;0.03;;;27.00;89.60;;;;;;5001837;28;20053;-87
2022/09/08 15:57:45;;;;;;;0.32;0.10;;;26.90;89.60;;;;;;5011628;28;20451;-87
2022/09/08 16:00:45;;;;;;;1.27;0.10;;;26.80;90.00;;;;;;4985619;28;20061;-87
2022/09/08 16:03:12;;;;;;;0.75;0.10;;;26.20;90.50;;;;;;5007039;28;20026;-87
2022/09/08 16:05:50;;;;;;;0.57;0.15;;;25.50;91.00;;;;;;5010617;28;20611;-86
2022/09/08 16:08:35;;;;;;;0.25;0.00;;;24.90;91.80;;;;;;5005328;28;20123;-86
2022/09/08 16:11:11;;;;;;;0.60;0.13;;;24.40;92.50;;;;;;5009251;28;20050;-87
2022/09/08 16:14:02;;;;;;;0.75;0.13;;;24.10;93.00;;;;;;5011764;28;20087;-86
2022/09/08 16:16:45;;;;;;;1.53;0.20;;;23.80;93.60;;;;;;5009543;28;20030;-86
2022/09/08 16:19:31;;;;;;;1.50;0.13;;;23.50;94.00;;;;;;4996975;28;20037;-86
2022/09/08 16:22:09;;;;;;;0.98;0.25;;;23.20;93.90;;;;;;5001272;28;20054;-86
2022/09/08 16:24:56;;;;;;;0.15;0.10;;;22.90;94.80;;;;;;5001977;28;20057;-87
2022/09/08 16:27:40;;;;;;;1.45;0.32;;;22.70;95.00;;;;;;5004990;28;20022;-86
2022/09/08 16:30:47;;;;;;;1.02;0.30;;;22.60;95.30;;;;;;5006339;28;20727;-87
2022/09/08 16:33:22;;;;;;;1.45;0.10;;;22.50;95.90;;;;;;5017641;28;20022;-86
2022/09/08 16:36:17;;;;;;;0.88;0.10;;;22.40;95.20;;;;;;5008659;28;20132;-86